sensor_id;sensor_type;location;lat;lon;timestamp;P1;durP1;ratioP1;P2;durP2;ratioP2
38717;SDS011;24468;52.128;9.278;2023-08-31T00:00:10;9.52;;;6.90;;
38717;SDS011;24468;52.128;9.278;2023-08-31T00:02:37;10.45;;;7.57;;
38717;SDS011;24468;52.128;9.278;2023-08-31T00:05:05;7.65;;;6.90;;
38717;SDS011;24468;52.128;9.278;2023-08-31T00:07:31;9.93;;;7.30;;
38717;SDS011;24468;52.128;9.278;2023-08-31T00:09:57;11.02;;;7.78;;
38717;SDS011;24468;52.128;9.278;2023-08-31T00:12:23;8.18;;;7.25;;
38717;SDS011;24468;52.128;9.278;2023-08-31T00:14:49;9.80;;;7.82;;
38717;SDS011;24468;52.128;9.278;2023-08-31T00:17:15;9.13;;;7.13;;
38717;SDS011;24468;52.128;9.278;2023-08-31T00:19:41;9.90;;;7.68;;
38717;SDS011;24468;52.128;9.278;2023-08-31T00:22:06;8.38;;;7.20;;
38717;SDS011;24468;52.128;9.278;2023-08-31T00:24:32;8.52;;;6.90;;
38717;SDS011;24468;52.128;9.278;2023-08-31T00:27:02;7.95;;;7.18;;
38717;SDS011;24468;52.128;9.278;2023-08-31T00:29:28;12.15;;;7.10;;
38717;SDS011;24468;52.128;9.278;2023-08-31T00:31:55;8.98;;;7.45;;
38717;SDS011;24468;52.128;9.278;2023-08-31T00:34:21;10.13;;;7.03;;
38717;SDS011;24468;52.128;9.278;2023-08-31T00:36:47;8.35;;;7.05;;
38717;SDS011;24468;52.128;9.278;2023-08-31T00:39:13;15.35;;;8.77;;
38717;SDS011;24468;52.128;9.278;2023-08-31T00:41:39;9.40;;;8.18;;
38717;SDS011;24468;52.128;9.278;2023-08-31T00:44:05;11.50;;;8.35;;
38717;SDS011;24468;52.128;9.278;2023-08-31T00:46:31;11.32;;;8.52;;
38717;SDS011;24468;52.128;9.278;2023-08-31T00:48:57;12.73;;;9.50;;
38717;SDS011;24468;52.128;9.278;2023-08-31T00:51:24;15.68;;;8.98;;
38717;SDS011;24468;52.128;9.278;2023-08-31T00:53:51;15.48;;;8.60;;
38717;SDS011;24468;52.128;9.278;2023-08-31T00:56:19;10.65;;;7.97;;
38717;SDS011;24468;52.128;9.278;2023-08-31T00:58:45;11.63;;;8.35;;
38717;SDS011;24468;52.128;9.278;2023-08-31T01:01:18;15.10;;;7.78;;
38717;SDS011;24468;52.128;9.278;2023-08-31T01:03:58;11.07;;;8.13;;
38717;SDS011;24468;52.128;9.278;2023-08-31T01:06:50;11.18;;;8.25;;
38717;SDS011;24468;52.128;9.278;2023-08-31T01:09:43;13.55;;;8.73;;
38717;SDS011;24468;52.128;9.278;2023-08-31T01:12:24;9.73;;;7.90;;
38717;SDS011;24468;52.128;9.278;2023-08-31T01:15:05;9.60;;;7.95;;
38717;SDS011;24468;52.128;9.278;2023-08-31T01:17:40;10.40;;;8.10;;
38717;SDS011;24468;52.128;9.278;2023-08-31T01:20:14;12.65;;;7.97;;
38717;SDS011;24468;52.128;9.278;2023-08-31T01:23:00;10.15;;;8.55;;
38717;SDS011;24468;52.128;9.278;2023-08-31T01:25:31;13.57;;;7.15;;
38717;SDS011;24468;52.128;9.278;2023-08-31T01:28:01;11.57;;;8.40;;
38717;SDS011;24468;52.128;9.278;2023-08-31T01:30:30;7.93;;;6.53;;
38717;SDS011;24468;52.128;9.278;2023-08-31T01:32:56;10.20;;;6.85;;
38717;SDS011;24468;52.128;9.278;2023-08-31T01:35:22;7.68;;;5.88;;
38717;SDS011;24468;52.128;9.278;2023-08-31T01:37:58;8.45;;;6.78;;
38717;SDS011;24468;52.128;9.278;2023-08-31T01:40:50;13.30;;;7.30;;
38717;SDS011;24468;52.128;9.278;2023-08-31T01:43:28;12.45;;;6.82;;
38717;SDS011;24468;52.128;9.278;2023-08-31T01:45:56;7.38;;;6.63;;
38717;SDS011;24468;52.128;9.278;2023-08-31T01:48:23;11.95;;;6.30;;
38717;SDS011;24468;52.128;9.278;2023-08-31T01:50:49;9.05;;;5.93;;
38717;SDS011;24468;52.128;9.278;2023-08-31T01:53:14;6.97;;;5.78;;
38717;SDS011;24468;52.128;9.278;2023-08-31T01:55:40;7.22;;;5.88;;
38717;SDS011;24468;52.128;9.278;2023-08-31T01:58:05;8.68;;;5.80;;
38717;SDS011;24468;52.128;9.278;2023-08-31T02:00:31;9.77;;;6.15;;
38717;SDS011;24468;52.128;9.278;2023-08-31T02:02:59;8.07;;;6.38;;
38717;SDS011;24468;52.128;9.278;2023-08-31T02:05:26;6.22;;;5.28;;
38717;SDS011;24468;52.128;9.278;2023-08-31T02:07:52;5.57;;;4.97;;
38717;SDS011;24468;52.128;9.278;2023-08-31T02:10:17;8.77;;;5.93;;
38717;SDS011;24468;52.128;9.278;2023-08-31T02:12:43;10.60;;;5.60;;
38717;SDS011;24468;52.128;9.278;2023-08-31T02:15:08;10.43;;;6.53;;
38717;SDS011;24468;52.128;9.278;2023-08-31T02:17:34;12.68;;;6.00;;
38717;SDS011;24468;52.128;9.278;2023-08-31T02:20:00;10.77;;;6.72;;
38717;SDS011;24468;52.128;9.278;2023-08-31T02:24:56;9.07;;;6.10;;
38717;SDS011;24468;52.128;9.278;2023-08-31T02:27:22;9.43;;;5.22;;
38717;SDS011;24468;52.128;9.278;2023-08-31T02:29:47;7.57;;;6.30;;
38717;SDS011;24468;52.128;9.278;2023-08-31T02:32:13;13.55;;;7.57;;
38717;SDS011;24468;52.128;9.278;2023-08-31T02:34:38;14.18;;;8.40;;
38717;SDS011;24468;52.128;9.278;2023-08-31T02:37:04;9.77;;;7.68;;
38717;SDS011;24468;52.128;9.278;2023-08-31T02:39:29;11.18;;;7.47;;
38717;SDS011;24468;52.128;9.278;2023-08-31T02:41:55;14.50;;;7.68;;
38717;SDS011;24468;52.128;9.278;2023-08-31T02:44:20;11.68;;;8.13;;
38717;SDS011;24468;52.128;9.278;2023-08-31T02:46:46;10.18;;;7.50;;
38717;SDS011;24468;52.128;9.278;2023-08-31T02:49:11;12.23;;;7.75;;
38717;SDS011;24468;52.128;9.278;2023-08-31T02:51:37;11.88;;;8.25;;
38717;SDS011;24468;52.128;9.278;2023-08-31T02:54:02;10.40;;;7.97;;
38717;SDS011;24468;52.128;9.278;2023-08-31T02:56:28;9.48;;;6.15;;
38717;SDS011;24468;52.128;9.278;2023-08-31T02:58:54;9.20;;;6.93;;
38717;SDS011;24468;52.128;9.278;2023-08-31T03:01:19;9.13;;;7.45;;
38717;SDS011;24468;52.128;9.278;2023-08-31T03:03:48;13.52;;;8.05;;
38717;SDS011;24468;52.128;9.278;2023-08-31T03:06:14;9.07;;;7.30;;
38717;SDS011;24468;52.128;9.278;2023-08-31T03:08:40;9.05;;;7.30;;
38717;SDS011;24468;52.128;9.278;2023-08-31T03:11:06;9.90;;;7.35;;
38717;SDS011;24468;52.128;9.278;2023-08-31T03:13:32;7.75;;;6.65;;
38717;SDS011;24468;52.128;9.278;2023-08-31T03:15:58;11.93;;;7.25;;
38717;SDS011;24468;52.128;9.278;2023-08-31T03:18:25;10.13;;;7.68;;
38717;SDS011;24468;52.128;9.278;2023-08-31T03:20:51;12.07;;;7.75;;
38717;SDS011;24468;52.128;9.278;2023-08-31T03:23:17;11.50;;;8.27;;
38717;SDS011;24468;52.128;9.278;2023-08-31T03:25:42;9.20;;;6.80;;
38717;SDS011;24468;52.128;9.278;2023-08-31T03:28:08;8.07;;;6.75;;
38717;SDS011;24468;52.128;9.278;2023-08-31T03:30:34;10.23;;;6.28;;
38717;SDS011;24468;52.128;9.278;2023-08-31T03:33:00;8.02;;;5.40;;
38717;SDS011;24468;52.128;9.278;2023-08-31T03:35:27;8.82;;;7.55;;
38717;SDS011;24468;52.128;9.278;2023-08-31T03:37:53;10.77;;;6.78;;
38717;SDS011;24468;52.128;9.278;2023-08-31T03:40:20;10.55;;;5.88;;
38717;SDS011;24468;52.128;9.278;2023-08-31T03:42:46;10.68;;;6.95;;
38717;SDS011;24468;52.128;9.278;2023-08-31T03:45:12;8.02;;;7.20;;
38717;SDS011;24468;52.128;9.278;2023-08-31T03:47:37;10.50;;;6.35;;
38717;SDS011;24468;52.128;9.278;2023-08-31T03:50:04;7.00;;;5.38;;
38717;SDS011;24468;52.128;9.278;2023-08-31T03:52:30;8.65;;;5.72;;
38717;SDS011;24468;52.128;9.278;2023-08-31T03:54:56;12.23;;;7.30;;
38717;SDS011;24468;52.128;9.278;2023-08-31T03:57:21;11.20;;;6.85;;
38717;SDS011;24468;52.128;9.278;2023-08-31T03:59:47;9.00;;;6.68;;
38717;SDS011;24468;52.128;9.278;2023-08-31T04:02:13;8.65;;;7.13;;
38717;SDS011;24468;52.128;9.278;2023-08-31T04:04:39;8.65;;;7.00;;
38717;SDS011;24468;52.128;9.278;2023-08-31T04:07:04;11.10;;;8.00;;
38717;SDS011;24468;52.128;9.278;2023-08-31T04:09:31;7.97;;;5.82;;
38717;SDS011;24468;52.128;9.278;2023-08-31T04:11:56;8.90;;;5.88;;
38717;SDS011;24468;52.128;9.278;2023-08-31T04:14:22;9.35;;;8.15;;
38717;SDS011;24468;52.128;9.278;2023-08-31T04:16:47;7.30;;;6.50;;
38717;SDS011;24468;52.128;9.278;2023-08-31T04:19:15;8.18;;;7.07;;
38717;SDS011;24468;52.128;9.278;2023-08-31T04:21:42;13.70;;;9.43;;
38717;SDS011;24468;52.128;9.278;2023-08-31T04:24:08;11.73;;;8.48;;
38717;SDS011;24468;52.128;9.278;2023-08-31T04:26:34;10.43;;;7.20;;
38717;SDS011;24468;52.128;9.278;2023-08-31T04:29:00;8.88;;;7.25;;
38717;SDS011;24468;52.128;9.278;2023-08-31T04:31:28;9.25;;;7.57;;
38717;SDS011;24468;52.128;9.278;2023-08-31T04:33:53;10.07;;;7.60;;
38717;SDS011;24468;52.128;9.278;2023-08-31T04:36:20;12.15;;;8.27;;
38717;SDS011;24468;52.128;9.278;2023-08-31T04:38:47;9.90;;;8.32;;
38717;SDS011;24468;52.128;9.278;2023-08-31T04:41:14;11.90;;;8.68;;
38717;SDS011;24468;52.128;9.278;2023-08-31T04:43:40;9.77;;;8.15;;
38717;SDS011;24468;52.128;9.278;2023-08-31T04:46:05;10.45;;;9.00;;
38717;SDS011;24468;52.128;9.278;2023-08-31T04:48:31;10.18;;;8.65;;
38717;SDS011;24468;52.128;9.278;2023-08-31T04:50:57;8.60;;;7.63;;
38717;SDS011;24468;52.128;9.278;2023-08-31T04:53:23;11.25;;;7.72;;
38717;SDS011;24468;52.128;9.278;2023-08-31T04:55:48;9.13;;;7.95;;
38717;SDS011;24468;52.128;9.278;2023-08-31T04:58:14;10.82;;;9.18;;
38717;SDS011;24468;52.128;9.278;2023-08-31T05:00:39;10.45;;;8.13;;
38717;SDS011;24468;52.128;9.278;2023-08-31T05:03:05;8.82;;;7.50;;
38717;SDS011;24468;52.128;9.278;2023-08-31T05:05:31;10.77;;;8.40;;
38717;SDS011;24468;52.128;9.278;2023-08-31T05:07:56;10.63;;;9.60;;
38717;SDS011;24468;52.128;9.278;2023-08-31T05:10:22;12.43;;;9.95;;
38717;SDS011;24468;52.128;9.278;2023-08-31T05:12:48;10.60;;;9.15;;
38717;SDS011;24468;52.128;9.278;2023-08-31T05:15:13;13.82;;;9.82;;
38717;SDS011;24468;52.128;9.278;2023-08-31T05:17:39;11.75;;;10.52;;
38717;SDS011;24468;52.128;9.278;2023-08-31T05:20:04;12.32;;;11.00;;
38717;SDS011;24468;52.128;9.278;2023-08-31T05:22:33;9.77;;;8.57;;
38717;SDS011;24468;52.128;9.278;2023-08-31T05:24:59;9.98;;;8.98;;
38717;SDS011;24468;52.128;9.278;2023-08-31T05:27:25;9.50;;;8.60;;
38717;SDS011;24468;52.128;9.278;2023-08-31T05:29:51;10.75;;;8.45;;
38717;SDS011;24468;52.128;9.278;2023-08-31T05:32:17;9.90;;;8.88;;
38717;SDS011;24468;52.128;9.278;2023-08-31T05:34:42;9.32;;;8.25;;
38717;SDS011;24468;52.128;9.278;2023-08-31T05:37:08;9.15;;;8.07;;
38717;SDS011;24468;52.128;9.278;2023-08-31T05:39:33;11.05;;;8.68;;
38717;SDS011;24468;52.128;9.278;2023-08-31T05:41:59;9.52;;;8.38;;
38717;SDS011;24468;52.128;9.278;2023-08-31T05:44:25;11.57;;;9.18;;
38717;SDS011;24468;52.128;9.278;2023-08-31T05:46:51;10.68;;;8.20;;
38717;SDS011;24468;52.128;9.278;2023-08-31T05:49:17;11.70;;;8.75;;
38717;SDS011;24468;52.128;9.278;2023-08-31T05:51:42;9.75;;;8.55;;
38717;SDS011;24468;52.128;9.278;2023-08-31T05:54:08;10.32;;;9.43;;
38717;SDS011;24468;52.128;9.278;2023-08-31T05:56:37;13.45;;;9.23;;
38717;SDS011;24468;52.128;9.278;2023-08-31T05:59:04;13.77;;;10.02;;
38717;SDS011;24468;52.128;9.278;2023-08-31T06:01:31;11.10;;;9.65;;
38717;SDS011;24468;52.128;9.278;2023-08-31T06:03:57;9.45;;;8.55;;
38717;SDS011;24468;52.128;9.278;2023-08-31T06:06:22;12.13;;;8.65;;
38717;SDS011;24468;52.128;9.278;2023-08-31T06:08:48;9.18;;;8.25;;
38717;SDS011;24468;52.128;9.278;2023-08-31T06:11:14;9.30;;;8.30;;
38717;SDS011;24468;52.128;9.278;2023-08-31T06:13:40;11.38;;;9.15;;
38717;SDS011;24468;52.128;9.278;2023-08-31T06:16:06;10.30;;;9.23;;
38717;SDS011;24468;52.128;9.278;2023-08-31T06:18:32;12.15;;;9.55;;
38717;SDS011;24468;52.128;9.278;2023-08-31T06:20:57;12.70;;;8.90;;
38717;SDS011;24468;52.128;9.278;2023-08-31T06:23:23;9.55;;;8.10;;
38717;SDS011;24468;52.128;9.278;2023-08-31T06:25:49;11.40;;;8.10;;
38717;SDS011;24468;52.128;9.278;2023-08-31T06:28:15;10.15;;;8.57;;
38717;SDS011;24468;52.128;9.278;2023-08-31T06:30:41;8.93;;;7.93;;
38717;SDS011;24468;52.128;9.278;2023-08-31T06:33:11;11.05;;;9.48;;
38717;SDS011;24468;52.128;9.278;2023-08-31T06:35:40;10.25;;;8.75;;
38717;SDS011;24468;52.128;9.278;2023-08-31T06:38:06;9.13;;;8.23;;
38717;SDS011;24468;52.128;9.278;2023-08-31T06:40:31;8.05;;;7.25;;
38717;SDS011;24468;52.128;9.278;2023-08-31T06:42:58;8.75;;;7.90;;
38717;SDS011;24468;52.128;9.278;2023-08-31T06:45:23;7.90;;;7.10;;
38717;SDS011;24468;52.128;9.278;2023-08-31T06:47:49;7.45;;;6.75;;
38717;SDS011;24468;52.128;9.278;2023-08-31T06:50:15;7.80;;;7.03;;
38717;SDS011;24468;52.128;9.278;2023-08-31T06:52:41;10.52;;;9.13;;
38717;SDS011;24468;52.128;9.278;2023-08-31T06:55:07;8.27;;;7.38;;
38717;SDS011;24468;52.128;9.278;2023-08-31T06:57:33;10.43;;;9.43;;
38717;SDS011;24468;52.128;9.278;2023-08-31T06:59:59;10.23;;;7.25;;
38717;SDS011;24468;52.128;9.278;2023-08-31T07:02:28;8.90;;;7.85;;
38717;SDS011;24468;52.128;9.278;2023-08-31T07:04:53;12.05;;;7.35;;
38717;SDS011;24468;52.128;9.278;2023-08-31T07:07:19;7.70;;;6.93;;
38717;SDS011;24468;52.128;9.278;2023-08-31T07:09:46;10.00;;;8.05;;
38717;SDS011;24468;52.128;9.278;2023-08-31T07:12:15;8.23;;;6.97;;
38717;SDS011;24468;52.128;9.278;2023-08-31T07:14:41;7.72;;;6.43;;
38717;SDS011;24468;52.128;9.278;2023-08-31T07:17:06;7.65;;;6.70;;
38717;SDS011;24468;52.128;9.278;2023-08-31T07:19:35;7.43;;;6.63;;
38717;SDS011;24468;52.128;9.278;2023-08-31T07:22:01;7.47;;;6.18;;
38717;SDS011;24468;52.128;9.278;2023-08-31T07:24:29;6.75;;;5.97;;
38717;SDS011;24468;52.128;9.278;2023-08-31T07:26:55;6.85;;;6.25;;
38717;SDS011;24468;52.128;9.278;2023-08-31T07:29:20;8.05;;;7.32;;
38717;SDS011;24468;52.128;9.278;2023-08-31T07:31:46;9.55;;;7.05;;
38717;SDS011;24468;52.128;9.278;2023-08-31T07:34:11;7.47;;;6.68;;
38717;SDS011;24468;52.128;9.278;2023-08-31T07:36:37;8.10;;;6.47;;
38717;SDS011;24468;52.128;9.278;2023-08-31T07:39:02;10.73;;;6.72;;
38717;SDS011;24468;52.128;9.278;2023-08-31T07:41:29;8.65;;;7.15;;
38717;SDS011;24468;52.128;9.278;2023-08-31T07:43:55;7.60;;;5.93;;
38717;SDS011;24468;52.128;9.278;2023-08-31T07:46:20;11.70;;;6.68;;
38717;SDS011;24468;52.128;9.278;2023-08-31T07:48:46;11.15;;;6.82;;
38717;SDS011;24468;52.128;9.278;2023-08-31T07:51:13;8.63;;;6.22;;
38717;SDS011;24468;52.128;9.278;2023-08-31T07:53:39;9.35;;;6.95;;
38717;SDS011;24468;52.128;9.278;2023-08-31T07:56:04;7.47;;;5.38;;
38717;SDS011;24468;52.128;9.278;2023-08-31T07:58:30;8.27;;;5.80;;
38717;SDS011;24468;52.128;9.278;2023-08-31T08:00:56;5.55;;;5.05;;
38717;SDS011;24468;52.128;9.278;2023-08-31T08:03:22;6.40;;;5.75;;
38717;SDS011;24468;52.128;9.278;2023-08-31T08:05:48;6.28;;;5.65;;
38717;SDS011;24468;52.128;9.278;2023-08-31T08:08:13;7.05;;;5.03;;
38717;SDS011;24468;52.128;9.278;2023-08-31T08:10:39;4.80;;;4.32;;
38717;SDS011;24468;52.128;9.278;2023-08-31T08:13:05;4.63;;;4.22;;
38717;SDS011;24468;52.128;9.278;2023-08-31T08:15:30;7.97;;;4.03;;
38717;SDS011;24468;52.128;9.278;2023-08-31T08:17:56;4.25;;;3.85;;
38717;SDS011;24468;52.128;9.278;2023-08-31T08:20:22;7.63;;;4.82;;
38717;SDS011;24468;52.128;9.278;2023-08-31T08:22:49;4.07;;;3.78;;
38717;SDS011;24468;52.128;9.278;2023-08-31T08:25:19;6.95;;;4.93;;
38717;SDS011;24468;52.128;9.278;2023-08-31T08:27:45;6.95;;;4.57;;
38717;SDS011;24468;52.128;9.278;2023-08-31T08:30:11;6.13;;;4.35;;
38717;SDS011;24468;52.128;9.278;2023-08-31T08:32:37;5.53;;;3.97;;
38717;SDS011;24468;52.128;9.278;2023-08-31T08:35:02;6.13;;;4.45;;
38717;SDS011;24468;52.128;9.278;2023-08-31T08:37:28;5.88;;;3.70;;
38717;SDS011;24468;52.128;9.278;2023-08-31T08:39:54;3.80;;;3.50;;
38717;SDS011;24468;52.128;9.278;2023-08-31T08:42:20;4.65;;;3.63;;
38717;SDS011;24468;52.128;9.278;2023-08-31T08:44:49;6.82;;;3.65;;
38717;SDS011;24468;52.128;9.278;2023-08-31T08:47:16;4.32;;;3.05;;
38717;SDS011;24468;52.128;9.278;2023-08-31T08:49:42;4.18;;;3.78;;
38717;SDS011;24468;52.128;9.278;2023-08-31T08:52:09;5.50;;;3.67;;
38717;SDS011;24468;52.128;9.278;2023-08-31T08:54:36;4.47;;;4.15;;
38717;SDS011;24468;52.128;9.278;2023-08-31T08:57:03;5.28;;;4.78;;
38717;SDS011;24468;52.128;9.278;2023-08-31T08:59:32;4.35;;;3.67;;
38717;SDS011;24468;52.128;9.278;2023-08-31T09:01:58;3.42;;;3.03;;
38717;SDS011;24468;52.128;9.278;2023-08-31T09:04:23;4.55;;;3.92;;
38717;SDS011;24468;52.128;9.278;2023-08-31T09:06:52;5.32;;;3.15;;
38717;SDS011;24468;52.128;9.278;2023-08-31T09:09:18;4.20;;;3.17;;
38717;SDS011;24468;52.128;9.278;2023-08-31T09:11:44;4.00;;;2.85;;
38717;SDS011;24468;52.128;9.278;2023-08-31T09:14:17;4.32;;;3.30;;
38717;SDS011;24468;52.128;9.278;2023-08-31T09:16:45;3.03;;;2.55;;
38717;SDS011;24468;52.128;9.278;2023-08-31T09:19:17;5.63;;;3.00;;
38717;SDS011;24468;52.128;9.278;2023-08-31T09:21:50;3.85;;;2.90;;
38717;SDS011;24468;52.128;9.278;2023-08-31T09:24:17;3.72;;;2.83;;
38717;SDS011;24468;52.128;9.278;2023-08-31T09:29:19;3.97;;;2.85;;
38717;SDS011;24468;52.128;9.278;2023-08-31T09:31:44;4.97;;;3.03;;
38717;SDS011;24468;52.128;9.278;2023-08-31T09:34:12;6.15;;;4.15;;
38717;SDS011;24468;52.128;9.278;2023-08-31T09:36:39;5.35;;;3.53;;
38717;SDS011;24468;52.128;9.278;2023-08-31T09:39:08;4.68;;;3.72;;
38717;SDS011;24468;52.128;9.278;2023-08-31T09:41:34;6.25;;;3.75;;
38717;SDS011;24468;52.128;9.278;2023-08-31T09:44:17;4.25;;;3.22;;
38717;SDS011;24468;52.128;9.278;2023-08-31T09:46:44;3.92;;;3.53;;
38717;SDS011;24468;52.128;9.278;2023-08-31T09:49:16;3.58;;;3.28;;
38717;SDS011;24468;52.128;9.278;2023-08-31T09:54:13;3.90;;;3.35;;
38717;SDS011;24468;52.128;9.278;2023-08-31T09:56:44;3.90;;;3.30;;
38717;SDS011;24468;52.128;9.278;2023-08-31T09:59:13;4.43;;;3.40;;
38717;SDS011;24468;52.128;9.278;2023-08-31T10:01:40;6.90;;;3.85;;
38717;SDS011;24468;52.128;9.278;2023-08-31T10:04:07;5.35;;;4.20;;
38717;SDS011;24468;52.128;9.278;2023-08-31T10:06:38;5.07;;;3.35;;
38717;SDS011;24468;52.128;9.278;2023-08-31T10:09:05;3.40;;;3.10;;
38717;SDS011;24468;52.128;9.278;2023-08-31T10:11:34;5.35;;;3.25;;
38717;SDS011;24468;52.128;9.278;2023-08-31T10:14:01;5.35;;;4.00;;
38717;SDS011;24468;52.128;9.278;2023-08-31T10:16:34;6.00;;;3.80;;
38717;SDS011;24468;52.128;9.278;2023-08-31T10:19:01;4.57;;;3.90;;
38717;SDS011;24468;52.128;9.278;2023-08-31T10:21:27;3.80;;;3.25;;
38717;SDS011;24468;52.128;9.278;2023-08-31T10:23:53;4.95;;;3.55;;
38717;SDS011;24468;52.128;9.278;2023-08-31T10:26:26;4.05;;;3.55;;
38717;SDS011;24468;52.128;9.278;2023-08-31T10:28:56;5.65;;;3.88;;
38717;SDS011;24468;52.128;9.278;2023-08-31T10:31:24;5.38;;;4.07;;
38717;SDS011;24468;52.128;9.278;2023-08-31T10:36:41;4.75;;;3.35;;
38717;SDS011;24468;52.128;9.278;2023-08-31T10:39:12;3.80;;;3.30;;
38717;SDS011;24468;52.128;9.278;2023-08-31T10:41:45;4.60;;;4.05;;
38717;SDS011;24468;52.128;9.278;2023-08-31T10:44:24;4.65;;;3.25;;
38717;SDS011;24468;52.128;9.278;2023-08-31T10:46:56;5.60;;;4.00;;
38717;SDS011;24468;52.128;9.278;2023-08-31T10:49:28;4.47;;;3.20;;
38717;SDS011;24468;52.128;9.278;2023-08-31T10:51:57;4.53;;;3.47;;
38717;SDS011;24468;52.128;9.278;2023-08-31T10:54:40;3.50;;;3.17;;
38717;SDS011;24468;52.128;9.278;2023-08-31T10:57:06;5.97;;;3.90;;
38717;SDS011;24468;52.128;9.278;2023-08-31T11:02:37;3.53;;;2.92;;
38717;SDS011;24468;52.128;9.278;2023-08-31T11:10:15;4.35;;;2.53;;
38717;SDS011;24468;52.128;9.278;2023-08-31T11:12:45;3.53;;;2.60;;
38717;SDS011;24468;52.128;9.278;2023-08-31T11:15:18;3.05;;;2.60;;
38717;SDS011;24468;52.128;9.278;2023-08-31T11:17:46;4.55;;;2.92;;
38717;SDS011;24468;52.128;9.278;2023-08-31T11:20:14;2.83;;;2.22;;
38717;SDS011;24468;52.128;9.278;2023-08-31T11:22:43;4.50;;;2.25;;
38717;SDS011;24468;52.128;9.278;2023-08-31T11:25:22;2.92;;;2.13;;
38717;SDS011;24468;52.128;9.278;2023-08-31T11:27:55;4.32;;;2.53;;
38717;SDS011;24468;52.128;9.278;2023-08-31T11:30:32;2.47;;;2.05;;
38717;SDS011;24468;52.128;9.278;2023-08-31T11:33:06;2.75;;;2.08;;
38717;SDS011;24468;52.128;9.278;2023-08-31T11:35:35;2.83;;;1.45;;
38717;SDS011;24468;52.128;9.278;2023-08-31T11:38:08;3.67;;;1.38;;
38717;SDS011;24468;52.128;9.278;2023-08-31T11:40:35;4.07;;;1.55;;
38717;SDS011;24468;52.128;9.278;2023-08-31T11:43:01;6.32;;;1.00;;
38717;SDS011;24468;52.128;9.278;2023-08-31T11:45:29;3.40;;;1.52;;
38717;SDS011;24468;52.128;9.278;2023-08-31T11:47:56;2.00;;;1.00;;
38717;SDS011;24468;52.128;9.278;2023-08-31T11:50:23;4.10;;;1.10;;
38717;SDS011;24468;52.128;9.278;2023-08-31T11:52:49;1.30;;;0.80;;
38717;SDS011;24468;52.128;9.278;2023-08-31T11:55:18;1.33;;;0.82;;
38717;SDS011;24468;52.128;9.278;2023-08-31T11:57:48;1.40;;;0.68;;
38717;SDS011;24468;52.128;9.278;2023-08-31T12:00:18;1.73;;;0.75;;
38717;SDS011;24468;52.128;9.278;2023-08-31T12:03:19;2.00;;;0.88;;
38717;SDS011;24468;52.128;9.278;2023-08-31T12:05:47;2.22;;;1.17;;
38717;SDS011;24468;52.128;9.278;2023-08-31T12:08:14;1.85;;;0.90;;
38717;SDS011;24468;52.128;9.278;2023-08-31T12:10:42;1.73;;;0.80;;
38717;SDS011;24468;52.128;9.278;2023-08-31T12:13:09;1.38;;;0.80;;
38717;SDS011;24468;52.128;9.278;2023-08-31T12:15:36;3.05;;;1.10;;
38717;SDS011;24468;52.128;9.278;2023-08-31T12:18:11;2.13;;;1.20;;
38717;SDS011;24468;52.128;9.278;2023-08-31T12:20:45;2.95;;;1.30;;
38717;SDS011;24468;52.128;9.278;2023-08-31T12:23:18;2.03;;;1.05;;
38717;SDS011;24468;52.128;9.278;2023-08-31T12:25:51;2.45;;;1.30;;
38717;SDS011;24468;52.128;9.278;2023-08-31T12:28:18;3.25;;;2.03;;
38717;SDS011;24468;52.128;9.278;2023-08-31T12:30:49;2.38;;;1.35;;
38717;SDS011;24468;52.128;9.278;2023-08-31T12:33:19;3.08;;;1.30;;
38717;SDS011;24468;52.128;9.278;2023-08-31T12:35:46;3.50;;;1.80;;
38717;SDS011;24468;52.128;9.278;2023-08-31T12:38:12;2.72;;;1.80;;
38717;SDS011;24468;52.128;9.278;2023-08-31T12:40:38;4.38;;;2.33;;
38717;SDS011;24468;52.128;9.278;2023-08-31T12:43:04;2.50;;;1.60;;
38717;SDS011;24468;52.128;9.278;2023-08-31T12:45:30;2.85;;;1.70;;
38717;SDS011;24468;52.128;9.278;2023-08-31T12:47:56;2.80;;;1.77;;
38717;SDS011;24468;52.128;9.278;2023-08-31T12:50:22;2.35;;;1.33;;
38717;SDS011;24468;52.128;9.278;2023-08-31T12:52:48;1.77;;;0.73;;
38717;SDS011;24468;52.128;9.278;2023-08-31T12:55:13;2.88;;;0.93;;
38717;SDS011;24468;52.128;9.278;2023-08-31T12:57:40;1.70;;;0.63;;
38717;SDS011;24468;52.128;9.278;2023-08-31T13:00:06;1.42;;;1.00;;
38717;SDS011;24468;52.128;9.278;2023-08-31T13:02:37;1.90;;;1.05;;
38717;SDS011;24468;52.128;9.278;2023-08-31T13:05:07;0.98;;;0.63;;
38717;SDS011;24468;52.128;9.278;2023-08-31T13:07:37;1.58;;;0.82;;
38717;SDS011;24468;52.128;9.278;2023-08-31T13:10:04;3.03;;;0.90;;
38717;SDS011;24468;52.128;9.278;2023-08-31T13:12:30;2.97;;;1.00;;
38717;SDS011;24468;52.128;9.278;2023-08-31T13:14:57;1.77;;;0.65;;
38717;SDS011;24468;52.128;9.278;2023-08-31T13:17:25;3.25;;;1.48;;
38717;SDS011;24468;52.128;9.278;2023-08-31T13:19:57;1.02;;;0.60;;
38717;SDS011;24468;52.128;9.278;2023-08-31T13:22:23;1.35;;;0.60;;
38717;SDS011;24468;52.128;9.278;2023-08-31T13:24:50;0.60;;;0.40;;
38717;SDS011;24468;52.128;9.278;2023-08-31T13:27:16;0.57;;;0.50;;
38717;SDS011;24468;52.128;9.278;2023-08-31T13:29:42;1.40;;;0.63;;
38717;SDS011;24468;52.128;9.278;2023-08-31T13:32:08;1.80;;;0.82;;
38717;SDS011;24468;52.128;9.278;2023-08-31T13:34:34;0.55;;;0.45;;
38717;SDS011;24468;52.128;9.278;2023-08-31T13:37:01;0.98;;;0.60;;
38717;SDS011;24468;52.128;9.278;2023-08-31T13:39:27;1.38;;;0.80;;
38717;SDS011;24468;52.128;9.278;2023-08-31T13:41:55;2.40;;;0.80;;
38717;SDS011;24468;52.128;9.278;2023-08-31T13:44:20;6.88;;;0.70;;
38717;SDS011;24468;52.128;9.278;2023-08-31T13:46:49;2.65;;;0.70;;
38717;SDS011;24468;52.128;9.278;2023-08-31T13:49:15;3.03;;;0.93;;
38717;SDS011;24468;52.128;9.278;2023-08-31T13:51:41;3.28;;;1.02;;
38717;SDS011;24468;52.128;9.278;2023-08-31T13:54:07;1.85;;;0.77;;
38717;SDS011;24468;52.128;9.278;2023-08-31T13:56:33;2.35;;;0.57;;
38717;SDS011;24468;52.128;9.278;2023-08-31T13:58:59;3.25;;;1.20;;
38717;SDS011;24468;52.128;9.278;2023-08-31T14:01:25;3.72;;;1.00;;
38717;SDS011;24468;52.128;9.278;2023-08-31T14:03:51;4.18;;;1.17;;
38717;SDS011;24468;52.128;9.278;2023-08-31T14:06:17;2.17;;;0.82;;
38717;SDS011;24468;52.128;9.278;2023-08-31T14:08:42;2.42;;;0.95;;
38717;SDS011;24468;52.128;9.278;2023-08-31T14:11:08;1.23;;;0.80;;
38717;SDS011;24468;52.128;9.278;2023-08-31T14:13:33;1.98;;;0.88;;
38717;SDS011;24468;52.128;9.278;2023-08-31T14:15:59;1.48;;;0.70;;
38717;SDS011;24468;52.128;9.278;2023-08-31T14:18:29;3.20;;;0.93;;
38717;SDS011;24468;52.128;9.278;2023-08-31T14:20:56;2.73;;;0.93;;
38717;SDS011;24468;52.128;9.278;2023-08-31T14:23:24;1.35;;;0.73;;
38717;SDS011;24468;52.128;9.278;2023-08-31T14:25:49;4.10;;;1.10;;
38717;SDS011;24468;52.128;9.278;2023-08-31T14:28:15;3.08;;;1.10;;
38717;SDS011;24468;52.128;9.278;2023-08-31T14:30:40;1.77;;;1.35;;
38717;SDS011;24468;52.128;9.278;2023-08-31T14:33:06;3.85;;;1.38;;
38717;SDS011;24468;52.128;9.278;2023-08-31T14:35:35;3.22;;;1.42;;
38717;SDS011;24468;52.128;9.278;2023-08-31T14:38:02;1.48;;;0.50;;
38717;SDS011;24468;52.128;9.278;2023-08-31T14:40:28;1.70;;;0.57;;
38717;SDS011;24468;52.128;9.278;2023-08-31T14:42:54;1.20;;;0.40;;
38717;SDS011;24468;52.128;9.278;2023-08-31T14:45:19;2.78;;;1.08;;
38717;SDS011;24468;52.128;9.278;2023-08-31T14:47:45;2.58;;;0.50;;
38717;SDS011;24468;52.128;9.278;2023-08-31T14:50:10;2.40;;;0.88;;
38717;SDS011;24468;52.128;9.278;2023-08-31T14:52:36;3.40;;;1.02;;
38717;SDS011;24468;52.128;9.278;2023-08-31T14:55:01;3.40;;;0.68;;
38717;SDS011;24468;52.128;9.278;2023-08-31T14:57:28;2.13;;;0.88;;
38717;SDS011;24468;52.128;9.278;2023-08-31T14:59:55;1.48;;;0.65;;
38717;SDS011;24468;52.128;9.278;2023-08-31T15:02:23;2.25;;;0.95;;